sensor_id;sensor_type;location;lat;lon;timestamp;P1;durP1;ratioP1;P2;durP2;ratioP2
44204;SDS011;30163;42.698;23.344;2023-03-23T00:02:22;196.23;;;85.10;;
44204;SDS011;30163;42.698;23.344;2023-03-23T00:04:53;208.93;;;84.32;;
44204;SDS011;30163;42.698;23.344;2023-03-23T00:07:20;204.32;;;84.15;;
44204;SDS011;30163;42.698;23.344;2023-03-23T00:09:52;216.95;;;89.07;;
44204;SDS011;30163;42.698;23.344;2023-03-23T00:12:22;224.25;;;90.30;;
44204;SDS011;30163;42.698;23.344;2023-03-23T00:15:02;221.40;;;90.60;;
44204;SDS011;30163;42.698;23.344;2023-03-23T00:17:29;225.73;;;92.05;;
44204;SDS011;30163;42.698;23.344;2023-03-23T00:19:55;223.18;;;91.65;;
44204;SDS011;30163;42.698;23.344;2023-03-23T00:22:21;227.40;;;92.63;;
44204;SDS011;30163;42.698;23.344;2023-03-23T00:24:49;220.75;;;93.32;;
44204;SDS011;30163;42.698;23.344;2023-03-23T00:27:16;226.32;;;95.65;;
44204;SDS011;30163;42.698;23.344;2023-03-23T00:29:42;227.88;;;93.97;;
44204;SDS011;30163;42.698;23.344;2023-03-23T00:32:10;222.32;;;93.47;;
44204;SDS011;30163;42.698;23.344;2023-03-23T00:34:38;200.30;;;84.78;;
44204;SDS011;30163;42.698;23.344;2023-03-23T00:37:05;205.65;;;80.57;;
44204;SDS011;30163;42.698;23.344;2023-03-23T00:39:31;191.60;;;82.70;;
44204;SDS011;30163;42.698;23.344;2023-03-23T00:41:56;188.70;;;83.20;;
44204;SDS011;30163;42.698;23.344;2023-03-23T00:44:26;198.63;;;83.88;;
44204;SDS011;30163;42.698;23.344;2023-03-23T00:46:53;198.98;;;82.53;;
44204;SDS011;30163;42.698;23.344;2023-03-23T00:49:21;175.82;;;78.25;;
44204;SDS011;30163;42.698;23.344;2023-03-23T00:51:50;174.35;;;77.50;;
44204;SDS011;30163;42.698;23.344;2023-03-23T00:54:16;179.30;;;80.07;;
44204;SDS011;30163;42.698;23.344;2023-03-23T00:56:41;204.18;;;87.60;;
44204;SDS011;30163;42.698;23.344;2023-03-23T00:59:07;198.00;;;87.10;;
44204;SDS011;30163;42.698;23.344;2023-03-23T01:01:32;204.65;;;87.85;;
44204;SDS011;30163;42.698;23.344;2023-03-23T01:03:59;198.43;;;86.95;;
44204;SDS011;30163;42.698;23.344;2023-03-23T01:06:29;202.77;;;82.78;;
44204;SDS011;30163;42.698;23.344;2023-03-23T01:08:56;184.50;;;78.60;;
44204;SDS011;30163;42.698;23.344;2023-03-23T01:11:22;180.10;;;76.88;;
44204;SDS011;30163;42.698;23.344;2023-03-23T01:13:48;185.95;;;77.13;;
44204;SDS011;30163;42.698;23.344;2023-03-23T01:16:14;183.88;;;77.28;;
44204;SDS011;30163;42.698;23.344;2023-03-23T01:18:40;179.40;;;74.20;;
44204;SDS011;30163;42.698;23.344;2023-03-23T01:21:06;184.10;;;76.90;;
44204;SDS011;30163;42.698;23.344;2023-03-23T01:23:33;195.38;;;79.20;;
44204;SDS011;30163;42.698;23.344;2023-03-23T01:26:02;194.68;;;84.00;;
44204;SDS011;30163;42.698;23.344;2023-03-23T01:28:54;211.63;;;86.63;;
44204;SDS011;30163;42.698;23.344;2023-03-23T01:31:21;203.57;;;82.28;;
44204;SDS011;30163;42.698;23.344;2023-03-23T01:33:48;225.82;;;83.97;;
44204;SDS011;30163;42.698;23.344;2023-03-23T01:36:26;204.10;;;81.05;;
44204;SDS011;30163;42.698;23.344;2023-03-23T01:38:53;216.30;;;78.85;;
44204;SDS011;30163;42.698;23.344;2023-03-23T01:41:20;235.95;;;86.68;;
44204;SDS011;30163;42.698;23.344;2023-03-23T01:46:34;207.95;;;79.47;;
44204;SDS011;30163;42.698;23.344;2023-03-23T01:49:02;200.88;;;78.47;;
44204;SDS011;30163;42.698;23.344;2023-03-23T01:51:34;209.07;;;80.90;;
44204;SDS011;30163;42.698;23.344;2023-03-23T01:54:02;228.68;;;83.57;;
44204;SDS011;30163;42.698;23.344;2023-03-23T01:56:39;213.02;;;80.55;;
44204;SDS011;30163;42.698;23.344;2023-03-23T01:59:09;215.50;;;80.30;;
44204;SDS011;30163;42.698;23.344;2023-03-23T02:01:35;228.68;;;83.20;;
44204;SDS011;30163;42.698;23.344;2023-03-23T02:04:04;215.13;;;83.43;;
44204;SDS011;30163;42.698;23.344;2023-03-23T02:06:29;255.80;;;85.07;;
44204;SDS011;30163;42.698;23.344;2023-03-23T02:08:55;242.70;;;91.10;;
44204;SDS011;30163;42.698;23.344;2023-03-23T02:11:21;294.23;;;129.18;;
44204;SDS011;30163;42.698;23.344;2023-03-23T02:13:47;241.45;;;95.32;;
44204;SDS011;30163;42.698;23.344;2023-03-23T02:27:45;199.30;;;79.97;;
44204;SDS011;30163;42.698;23.344;2023-03-23T02:36:05;189.15;;;76.00;;
44204;SDS011;30163;42.698;23.344;2023-03-23T02:38:52;188.95;;;75.28;;
44204;SDS011;30163;42.698;23.344;2023-03-23T02:41:18;188.55;;;73.72;;
44204;SDS011;30163;42.698;23.344;2023-03-23T02:43:46;178.38;;;73.65;;
44204;SDS011;30163;42.698;23.344;2023-03-23T02:46:12;149.73;;;62.08;;
44204;SDS011;30163;42.698;23.344;2023-03-23T02:48:39;113.13;;;50.00;;
44204;SDS011;30163;42.698;23.344;2023-03-23T02:51:05;106.93;;;46.53;;
44204;SDS011;30163;42.698;23.344;2023-03-23T02:53:33;118.35;;;48.95;;
44204;SDS011;30163;42.698;23.344;2023-03-23T02:55:59;114.47;;;46.88;;
44204;SDS011;30163;42.698;23.344;2023-03-23T02:58:28;115.63;;;52.50;;
44204;SDS011;30163;42.698;23.344;2023-03-23T03:00:54;92.82;;;42.83;;
44204;SDS011;30163;42.698;23.344;2023-03-23T03:03:21;119.82;;;50.88;;
44204;SDS011;30163;42.698;23.344;2023-03-23T03:06:10;96.95;;;44.17;;
44204;SDS011;30163;42.698;23.344;2023-03-23T03:09:07;92.78;;;41.28;;
44204;SDS011;30163;42.698;23.344;2023-03-23T03:11:36;99.43;;;44.97;;
44204;SDS011;30163;42.698;23.344;2023-03-23T03:19:24;91.80;;;40.25;;
44204;SDS011;30163;42.698;23.344;2023-03-23T03:21:53;96.05;;;40.53;;
44204;SDS011;30163;42.698;23.344;2023-03-23T03:24:20;78.07;;;35.78;;
44204;SDS011;30163;42.698;23.344;2023-03-23T03:26:47;87.57;;;38.65;;
44204;SDS011;30163;42.698;23.344;2023-03-23T03:29:21;91.90;;;36.97;;
44204;SDS011;30163;42.698;23.344;2023-03-23T03:31:48;84.85;;;37.03;;
44204;SDS011;30163;42.698;23.344;2023-03-23T03:34:14;83.05;;;37.67;;
44204;SDS011;30163;42.698;23.344;2023-03-23T03:36:43;82.50;;;37.42;;
44204;SDS011;30163;42.698;23.344;2023-03-23T03:39:10;85.60;;;39.33;;
44204;SDS011;30163;42.698;23.344;2023-03-23T03:41:37;85.65;;;39.38;;
44204;SDS011;30163;42.698;23.344;2023-03-23T03:44:03;92.05;;;40.03;;
44204;SDS011;30163;42.698;23.344;2023-03-23T03:46:30;98.60;;;41.60;;
44204;SDS011;30163;42.698;23.344;2023-03-23T03:48:56;94.88;;;38.83;;
44204;SDS011;30163;42.698;23.344;2023-03-23T03:51:22;90.75;;;37.88;;
44204;SDS011;30163;42.698;23.344;2023-03-23T03:53:48;98.45;;;39.17;;
44204;SDS011;30163;42.698;23.344;2023-03-23T03:56:14;88.32;;;40.38;;
44204;SDS011;30163;42.698;23.344;2023-03-23T03:58:40;83.20;;;36.15;;
44204;SDS011;30163;42.698;23.344;2023-03-23T04:01:07;83.95;;;37.60;;
44204;SDS011;30163;42.698;23.344;2023-03-23T04:03:36;91.50;;;38.42;;
44204;SDS011;30163;42.698;23.344;2023-03-23T04:06:02;71.93;;;35.45;;
44204;SDS011;30163;42.698;23.344;2023-03-23T04:08:28;83.00;;;35.97;;
44204;SDS011;30163;42.698;23.344;2023-03-23T04:10:54;78.60;;;33.70;;
44204;SDS011;30163;42.698;23.344;2023-03-23T04:13:20;74.47;;;33.25;;
44204;SDS011;30163;42.698;23.344;2023-03-23T04:15:46;71.85;;;34.03;;
44204;SDS011;30163;42.698;23.344;2023-03-23T04:18:12;80.72;;;35.72;;
44204;SDS011;30163;42.698;23.344;2023-03-23T04:20:40;111.68;;;40.35;;
44204;SDS011;30163;42.698;23.344;2023-03-23T04:23:06;149.45;;;78.30;;
44204;SDS011;30163;42.698;23.344;2023-03-23T04:25:32;105.57;;;48.22;;
44204;SDS011;30163;42.698;23.344;2023-03-23T04:27:57;107.43;;;48.78;;
44204;SDS011;30163;42.698;23.344;2023-03-23T04:30:26;111.03;;;45.83;;
44204;SDS011;30163;42.698;23.344;2023-03-23T04:32:52;96.75;;;45.10;;
44204;SDS011;30163;42.698;23.344;2023-03-23T04:35:20;100.25;;;44.42;;
44204;SDS011;30163;42.698;23.344;2023-03-23T04:37:48;89.53;;;41.78;;
44204;SDS011;30163;42.698;23.344;2023-03-23T04:40:14;121.47;;;61.58;;
44204;SDS011;30163;42.698;23.344;2023-03-23T04:42:41;85.68;;;44.15;;
44204;SDS011;30163;42.698;23.344;2023-03-23T04:45:10;91.20;;;41.35;;
44204;SDS011;30163;42.698;23.344;2023-03-23T04:47:38;98.90;;;43.28;;
44204;SDS011;30163;42.698;23.344;2023-03-23T04:50:10;96.22;;;45.53;;
44204;SDS011;30163;42.698;23.344;2023-03-23T04:52:38;125.00;;;64.13;;
44204;SDS011;30163;42.698;23.344;2023-03-23T04:55:05;124.97;;;64.65;;
44204;SDS011;30163;42.698;23.344;2023-03-23T04:57:32;107.45;;;54.33;;
44204;SDS011;30163;42.698;23.344;2023-03-23T04:59:58;97.97;;;45.83;;
44204;SDS011;30163;42.698;23.344;2023-03-23T05:02:24;93.72;;;44.00;;
44204;SDS011;30163;42.698;23.344;2023-03-23T05:04:50;84.32;;;42.08;;
44204;SDS011;30163;42.698;23.344;2023-03-23T05:07:15;86.65;;;39.20;;
44204;SDS011;30163;42.698;23.344;2023-03-23T05:09:41;100.68;;;43.55;;
44204;SDS011;30163;42.698;23.344;2023-03-23T05:12:07;96.28;;;41.20;;
44204;SDS011;30163;42.698;23.344;2023-03-23T05:14:34;106.93;;;42.95;;
44204;SDS011;30163;42.698;23.344;2023-03-23T05:16:59;127.45;;;44.85;;
44204;SDS011;30163;42.698;23.344;2023-03-23T05:19:25;109.72;;;47.15;;
44204;SDS011;30163;42.698;23.344;2023-03-23T05:21:50;143.70;;;71.43;;
44204;SDS011;30163;42.698;23.344;2023-03-23T05:24:15;127.30;;;59.90;;
44204;SDS011;30163;42.698;23.344;2023-03-23T05:26:42;132.73;;;59.10;;
44204;SDS011;30163;42.698;23.344;2023-03-23T05:29:09;158.60;;;72.35;;
44204;SDS011;30163;42.698;23.344;2023-03-23T05:31:35;136.75;;;59.95;;
44204;SDS011;30163;42.698;23.344;2023-03-23T05:34:01;116.07;;;54.40;;
44204;SDS011;30163;42.698;23.344;2023-03-23T05:36:27;109.80;;;55.28;;
44204;SDS011;30163;42.698;23.344;2023-03-23T05:38:52;121.85;;;55.90;;
44204;SDS011;30163;42.698;23.344;2023-03-23T05:41:18;114.53;;;54.08;;
44204;SDS011;30163;42.698;23.344;2023-03-23T05:43:43;141.00;;;58.63;;
44204;SDS011;30163;42.698;23.344;2023-03-23T05:46:09;123.80;;;57.45;;
44204;SDS011;30163;42.698;23.344;2023-03-23T05:48:34;135.32;;;58.80;;
44204;SDS011;30163;42.698;23.344;2023-03-23T05:51:00;123.25;;;56.47;;
44204;SDS011;30163;42.698;23.344;2023-03-23T05:53:25;129.73;;;59.60;;
44204;SDS011;30163;42.698;23.344;2023-03-23T05:55:51;145.32;;;62.33;;
44204;SDS011;30163;42.698;23.344;2023-03-23T05:58:17;129.02;;;60.90;;
44204;SDS011;30163;42.698;23.344;2023-03-23T06:00:43;120.63;;;57.28;;
44204;SDS011;30163;42.698;23.344;2023-03-23T06:03:08;123.97;;;56.50;;
44204;SDS011;30163;42.698;23.344;2023-03-23T06:05:34;130.60;;;60.50;;
44204;SDS011;30163;42.698;23.344;2023-03-23T06:07:59;131.75;;;56.35;;
44204;SDS011;30163;42.698;23.344;2023-03-23T06:10:25;127.05;;;58.78;;
44204;SDS011;30163;42.698;23.344;2023-03-23T06:12:51;126.57;;;56.33;;
44204;SDS011;30163;42.698;23.344;2023-03-23T06:15:17;123.75;;;54.22;;
44204;SDS011;30163;42.698;23.344;2023-03-23T06:17:43;116.47;;;56.40;;
44204;SDS011;30163;42.698;23.344;2023-03-23T06:20:08;114.05;;;52.15;;
44204;SDS011;30163;42.698;23.344;2023-03-23T06:22:38;117.78;;;50.42;;
44204;SDS011;30163;42.698;23.344;2023-03-23T06:25:07;119.88;;;56.08;;
44204;SDS011;30163;42.698;23.344;2023-03-23T06:27:34;113.50;;;55.30;;
44204;SDS011;30163;42.698;23.344;2023-03-23T06:30:00;123.85;;;54.17;;
44204;SDS011;30163;42.698;23.344;2023-03-23T06:32:27;116.80;;;53.58;;
44204;SDS011;30163;42.698;23.344;2023-03-23T06:34:53;133.68;;;59.22;;
44204;SDS011;30163;42.698;23.344;2023-03-23T06:37:19;111.88;;;53.35;;
44204;SDS011;30163;42.698;23.344;2023-03-23T06:39:45;116.10;;;53.30;;
44204;SDS011;30163;42.698;23.344;2023-03-23T06:42:11;106.47;;;51.13;;
44204;SDS011;30163;42.698;23.344;2023-03-23T06:44:37;119.95;;;52.88;;
44204;SDS011;30163;42.698;23.344;2023-03-23T06:47:02;111.65;;;55.13;;
44204;SDS011;30163;42.698;23.344;2023-03-23T06:49:28;125.40;;;58.90;;
44204;SDS011;30163;42.698;23.344;2023-03-23T06:51:53;104.20;;;52.50;;
44204;SDS011;30163;42.698;23.344;2023-03-23T06:54:21;120.93;;;54.58;;
44204;SDS011;30163;42.698;23.344;2023-03-23T06:56:46;111.32;;;53.97;;
44204;SDS011;30163;42.698;23.344;2023-03-23T06:59:12;112.80;;;53.20;;
44204;SDS011;30163;42.698;23.344;2023-03-23T07:01:37;98.78;;;48.10;;
44204;SDS011;30163;42.698;23.344;2023-03-23T07:04:03;110.65;;;53.83;;
44204;SDS011;30163;42.698;23.344;2023-03-23T07:06:29;105.28;;;52.50;;
44204;SDS011;30163;42.698;23.344;2023-03-23T07:08:54;103.30;;;52.47;;
44204;SDS011;30163;42.698;23.344;2023-03-23T07:11:19;94.22;;;48.63;;
44204;SDS011;30163;42.698;23.344;2023-03-23T07:13:45;92.28;;;46.30;;
44204;SDS011;30163;42.698;23.344;2023-03-23T07:16:11;93.72;;;47.45;;
44204;SDS011;30163;42.698;23.344;2023-03-23T07:18:36;95.60;;;48.97;;
44204;SDS011;30163;42.698;23.344;2023-03-23T07:21:02;94.93;;;47.30;;
44204;SDS011;30163;42.698;23.344;2023-03-23T07:23:28;90.70;;;45.78;;
44204;SDS011;30163;42.698;23.344;2023-03-23T07:25:55;79.15;;;40.88;;
44204;SDS011;30163;42.698;23.344;2023-03-23T07:28:20;85.45;;;42.20;;
44204;SDS011;30163;42.698;23.344;2023-03-23T07:30:46;84.32;;;42.42;;
44204;SDS011;30163;42.698;23.344;2023-03-23T07:33:11;77.72;;;37.97;;
44204;SDS011;30163;42.698;23.344;2023-03-23T07:35:37;85.75;;;38.80;;
44204;SDS011;30163;42.698;23.344;2023-03-23T07:38:03;85.63;;;40.53;;
44204;SDS011;30163;42.698;23.344;2023-03-23T07:40:29;82.85;;;43.58;;
44204;SDS011;30163;42.698;23.344;2023-03-23T07:42:58;90.88;;;39.28;;
44204;SDS011;30163;42.698;23.344;2023-03-23T07:45:24;76.65;;;39.45;;
44204;SDS011;30163;42.698;23.344;2023-03-23T07:47:50;79.60;;;41.50;;
44204;SDS011;30163;42.698;23.344;2023-03-23T07:50:16;66.60;;;36.53;;
44204;SDS011;30163;42.698;23.344;2023-03-23T07:52:41;81.13;;;38.28;;
44204;SDS011;30163;42.698;23.344;2023-03-23T07:55:08;74.95;;;35.67;;
44204;SDS011;30163;42.698;23.344;2023-03-23T07:57:43;77.00;;;36.33;;
44204;SDS011;30163;42.698;23.344;2023-03-23T08:00:09;78.88;;;39.67;;
44204;SDS011;30163;42.698;23.344;2023-03-23T08:02:39;78.90;;;39.92;;
44204;SDS011;30163;42.698;23.344;2023-03-23T08:05:06;85.28;;;40.35;;
44204;SDS011;30163;42.698;23.344;2023-03-23T08:07:33;82.13;;;39.72;;
44204;SDS011;30163;42.698;23.344;2023-03-23T08:09:59;71.40;;;37.85;;
44204;SDS011;30163;42.698;23.344;2023-03-23T08:12:25;82.03;;;39.22;;
44204;SDS011;30163;42.698;23.344;2023-03-23T08:14:52;77.88;;;40.03;;
44204;SDS011;30163;42.698;23.344;2023-03-23T08:17:18;68.95;;;35.63;;
44204;SDS011;30163;42.698;23.344;2023-03-23T08:19:44;69.10;;;37.17;;
44204;SDS011;30163;42.698;23.344;2023-03-23T08:22:10;70.47;;;34.80;;
44204;SDS011;30163;42.698;23.344;2023-03-23T08:24:36;81.88;;;37.25;;
44204;SDS011;30163;42.698;23.344;2023-03-23T08:27:02;80.75;;;36.42;;
44204;SDS011;30163;42.698;23.344;2023-03-23T08:29:27;77.82;;;36.35;;
44204;SDS011;30163;42.698;23.344;2023-03-23T08:31:53;55.72;;;32.67;;
44204;SDS011;30163;42.698;23.344;2023-03-23T08:34:19;69.70;;;31.63;;
44204;SDS011;30163;42.698;23.344;2023-03-23T08:36:45;59.10;;;32.55;;
44204;SDS011;30163;42.698;23.344;2023-03-23T08:39:11;67.03;;;30.25;;
44204;SDS011;30163;42.698;23.344;2023-03-23T08:41:39;51.30;;;26.58;;
44204;SDS011;30163;42.698;23.344;2023-03-23T08:44:05;53.13;;;28.67;;
44204;SDS011;30163;42.698;23.344;2023-03-23T08:46:30;47.08;;;25.40;;
44204;SDS011;30163;42.698;23.344;2023-03-23T08:48:56;56.22;;;24.02;;
44204;SDS011;30163;42.698;23.344;2023-03-23T08:51:21;48.33;;;26.50;;
44204;SDS011;30163;42.698;23.344;2023-03-23T08:53:47;55.35;;;27.73;;
44204;SDS011;30163;42.698;23.344;2023-03-23T08:56:12;44.20;;;23.25;;
44204;SDS011;30163;42.698;23.344;2023-03-23T08:58:39;54.33;;;27.70;;
44204;SDS011;30163;42.698;23.344;2023-03-23T09:01:05;42.20;;;23.83;;
44204;SDS011;30163;42.698;23.344;2023-03-23T09:03:32;43.10;;;22.05;;
44204;SDS011;30163;42.698;23.344;2023-03-23T09:05:59;49.58;;;18.95;;
44204;SDS011;30163;42.698;23.344;2023-03-23T09:08:25;51.92;;;21.48;;
44204;SDS011;30163;42.698;23.344;2023-03-23T09:10:53;20.48;;;12.07;;
44204;SDS011;30163;42.698;23.344;2023-03-23T09:13:20;16.52;;;9.25;;
44204;SDS011;30163;42.698;23.344;2023-03-23T09:15:45;20.27;;;11.15;;
44204;SDS011;30163;42.698;23.344;2023-03-23T09:18:11;28.75;;;13.57;;
44204;SDS011;30163;42.698;23.344;2023-03-23T09:20:37;19.15;;;12.10;;
44204;SDS011;30163;42.698;23.344;2023-03-23T09:23:03;20.70;;;10.95;;
44204;SDS011;30163;42.698;23.344;2023-03-23T09:25:32;20.63;;;11.68;;
44204;SDS011;30163;42.698;23.344;2023-03-23T09:27:58;20.95;;;12.25;;
44204;SDS011;30163;42.698;23.344;2023-03-23T09:30:24;17.40;;;9.80;;
44204;SDS011;30163;42.698;23.344;2023-03-23T09:32:53;16.17;;;10.27;;
44204;SDS011;30163;42.698;23.344;2023-03-23T09:35:19;19.23;;;11.57;;
44204;SDS011;30163;42.698;23.344;2023-03-23T09:37:46;23.30;;;11.88;;
44204;SDS011;30163;42.698;23.344;2023-03-23T09:40:23;21.77;;;11.45;;
44204;SDS011;30163;42.698;23.344;2023-03-23T09:48:57;17.45;;;9.77;;
44204;SDS011;30163;42.698;23.344;2023-03-23T09:51:28;21.52;;;10.43;;
44204;SDS011;30163;42.698;23.344;2023-03-23T09:54:33;15.82;;;10.02;;
44204;SDS011;30163;42.698;23.344;2023-03-23T09:57:04;14.65;;;9.55;;
44204;SDS011;30163;42.698;23.344;2023-03-23T09:59:39;18.17;;;9.32;;
44204;SDS011;30163;42.698;23.344;2023-03-23T10:02:17;18.17;;;10.48;;
44204;SDS011;30163;42.698;23.344;2023-03-23T10:04:45;14.90;;;9.77;;
44204;SDS011;30163;42.698;23.344;2023-03-23T10:07:21;22.42;;;10.57;;
44204;SDS011;30163;42.698;23.344;2023-03-23T10:09:51;15.18;;;9.75;;
44204;SDS011;30163;42.698;23.344;2023-03-23T10:17:18;18.63;;;11.23;;
44204;SDS011;30163;42.698;23.344;2023-03-23T10:19:48;29.15;;;11.85;;
44204;SDS011;30163;42.698;23.344;2023-03-23T10:22:22;19.53;;;12.33;;
44204;SDS011;30163;42.698;23.344;2023-03-23T10:24:55;20.63;;;12.55;;
44204;SDS011;30163;42.698;23.344;2023-03-23T10:27:30;17.48;;;10.88;;
44204;SDS011;30163;42.698;23.344;2023-03-23T10:30:59;21.35;;;11.02;;
44204;SDS011;30163;42.698;23.344;2023-03-23T10:35:37;17.40;;;11.02;;
44204;SDS011;30163;42.698;23.344;2023-03-23T10:38:09;27.90;;;11.75;;
44204;SDS011;30163;42.698;23.344;2023-03-23T10:40:43;18.23;;;10.80;;
44204;SDS011;30163;42.698;23.344;2023-03-23T10:45:45;22.63;;;11.23;;
44204;SDS011;30163;42.698;23.344;2023-03-23T10:48:27;23.55;;;12.07;;
44204;SDS011;30163;42.698;23.344;2023-03-23T10:50:58;19.52;;;10.70;;
44204;SDS011;30163;42.698;23.344;2023-03-23T10:53:37;16.80;;;10.93;;
44204;SDS011;30163;42.698;23.344;2023-03-23T10:56:05;18.95;;;11.25;;
44204;SDS011;30163;42.698;23.344;2023-03-23T10:58:32;22.50;;;10.90;;
44204;SDS011;30163;42.698;23.344;2023-03-23T11:01:00;25.40;;;10.48;;
44204;SDS011;30163;42.698;23.344;2023-03-23T11:03:40;16.88;;;10.85;;
44204;SDS011;30163;42.698;23.344;2023-03-23T11:06:09;18.23;;;10.00;;
44204;SDS011;30163;42.698;23.344;2023-03-23T11:14:14;16.30;;;10.07;;
44204;SDS011;30163;42.698;23.344;2023-03-23T11:16:44;13.73;;;9.20;;
44204;SDS011;30163;42.698;23.344;2023-03-23T11:19:15;17.27;;;10.50;;
44204;SDS011;30163;42.698;23.344;2023-03-23T11:21:49;16.10;;;10.82;;
44204;SDS011;30163;42.698;23.344;2023-03-23T11:24:16;30.00;;;11.10;;
44204;SDS011;30163;42.698;23.344;2023-03-23T11:26:43;18.75;;;12.45;;
44204;SDS011;30163;42.698;23.344;2023-03-23T11:29:11;16.52;;;10.77;;
44204;SDS011;30163;42.698;23.344;2023-03-23T11:31:49;18.88;;;11.30;;
44204;SDS011;30163;42.698;23.344;2023-03-23T11:34:34;19.60;;;11.80;;
44204;SDS011;30163;42.698;23.344;2023-03-23T11:37:05;21.70;;;11.57;;
44204;SDS011;30163;42.698;23.344;2023-03-23T11:45:22;17.08;;;10.70;;
44204;SDS011;30163;42.698;23.344;2023-03-23T11:47:54;19.83;;;9.50;;
44204;SDS011;30163;42.698;23.344;2023-03-23T11:50:44;16.88;;;10.07;;
44204;SDS011;30163;42.698;23.344;2023-03-23T11:58:13;14.95;;;9.35;;
44204;SDS011;30163;42.698;23.344;2023-03-23T12:00:45;17.08;;;9.70;;
44204;SDS011;30163;42.698;23.344;2023-03-23T12:03:15;16.73;;;9.27;;
44204;SDS011;30163;42.698;23.344;2023-03-23T12:08:32;18.10;;;8.98;;
44204;SDS011;30163;42.698;23.344;2023-03-23T12:36:19;14.65;;;9.65;;
44204;SDS011;30163;42.698;23.344;2023-03-23T12:39:02;23.98;;;9.65;;
44204;SDS011;30163;42.698;23.344;2023-03-23T12:44:23;14.98;;;8.55;;
44204;SDS011;30163;42.698;23.344;2023-03-23T12:47:07;15.68;;;8.85;;
44204;SDS011;30163;42.698;23.344;2023-03-23T12:49:48;13.98;;;8.13;;
44204;SDS011;30163;42.698;23.344;2023-03-23T12:52:23;13.52;;;8.77;;
44204;SDS011;30163;42.698;23.344;2023-03-23T12:55:01;13.48;;;8.90;;
44204;SDS011;30163;42.698;23.344;2023-03-23T12:57:39;10.70;;;7.88;;
44204;SDS011;30163;42.698;23.344;2023-03-23T13:03:06;10.80;;;7.70;;
44204;SDS011;30163;42.698;23.344;2023-03-23T13:05:47;15.57;;;8.35;;
44204;SDS011;30163;42.698;23.344;2023-03-23T13:08:21;14.55;;;7.88;;
44204;SDS011;30163;42.698;23.344;2023-03-23T13:10:52;12.73;;;8.23;;
44204;SDS011;30163;42.698;23.344;2023-03-23T13:13:20;13.23;;;8.63;;
44204;SDS011;30163;42.698;23.344;2023-03-23T13:15:56;15.50;;;8.50;;
44204;SDS011;30163;42.698;23.344;2023-03-23T13:23:54;19.25;;;9.45;;
44204;SDS011;30163;42.698;23.344;2023-03-23T13:31:23;15.18;;;8.70;;
44204;SDS011;30163;42.698;23.344;2023-03-23T13:34:01;13.70;;;9.18;;
44204;SDS011;30163;42.698;23.344;2023-03-23T13:36:30;12.32;;;7.18;;
44204;SDS011;30163;42.698;23.344;2023-03-23T13:39:01;10.07;;;7.38;;
44204;SDS011;30163;42.698;23.344;2023-03-23T13:41:29;13.10;;;7.97;;
44204;SDS011;30163;42.698;23.344;2023-03-23T13:44:05;11.82;;;7.50;;
44204;SDS011;30163;42.698;23.344;2023-03-23T13:46:40;14.80;;;9.20;;
44204;SDS011;30163;42.698;23.344;2023-03-23T13:49:17;11.32;;;7.57;;
44204;SDS011;30163;42.698;23.344;2023-03-23T13:56:40;13.68;;;8.38;;
44204;SDS011;30163;42.698;23.344;2023-03-23T13:59:13;11.10;;;7.38;;
44204;SDS011;30163;42.698;23.344;2023-03-23T14:01:40;12.35;;;8.18;;
44204;SDS011;30163;42.698;23.344;2023-03-23T14:04:09;14.55;;;7.88;;
44204;SDS011;30163;42.698;23.344;2023-03-23T14:06:36;13.10;;;7.55;;
44204;SDS011;30163;42.698;23.344;2023-03-23T14:11:57;12.45;;;7.75;;
44204;SDS011;30163;42.698;23.344;2023-03-23T14:17:05;17.00;;;8.18;;
44204;SDS011;30163;42.698;23.344;2023-03-23T14:19:38;10.95;;;7.40;;
44204;SDS011;30163;42.698;23.344;2023-03-23T14:22:05;12.00;;;7.20;;
44204;SDS011;30163;42.698;23.344;2023-03-23T14:24:42;22.02;;;8.32;;
44204;SDS011;30163;42.698;23.344;2023-03-23T14:27:09;12.00;;;8.32;;
44204;SDS011;30163;42.698;23.344;2023-03-23T14:29:42;21.90;;;8.73;;
44204;SDS011;30163;42.698;23.344;2023-03-23T14:32:11;21.73;;;8.73;;
44204;SDS011;30163;42.698;23.344;2023-03-23T14:34:39;13.30;;;8.10;;
44204;SDS011;30163;42.698;23.344;2023-03-23T14:37:05;13.00;;;8.20;;
44204;SDS011;30163;42.698;23.344;2023-03-23T14:39:36;18.23;;;7.88;;
44204;SDS011;30163;42.698;23.344;2023-03-23T14:42:09;13.35;;;8.40;;
44204;SDS011;30163;42.698;23.344;2023-03-23T14:44:40;16.38;;;7.75;;
44204;SDS011;30163;42.698;23.344;2023-03-23T14:47:13;14.52;;;8.48;;
44204;SDS011;30163;42.698;23.344;2023-03-23T14:49:42;21.17;;;8.07;;
44204;SDS011;30163;42.698;23.344;2023-03-23T14:52:16;10.05;;;7.30;;
44204;SDS011;30163;42.698;23.344;2023-03-23T14:54:42;11.20;;;8.05;;
44204;SDS011;30163;42.698;23.344;2023-03-23T14:57:28;15.65;;;7.95;;
44204;SDS011;30163;42.698;23.344;2023-03-23T14:59:54;16.40;;;8.02;;
44204;SDS011;30163;42.698;23.344;2023-03-23T15:02:25;12.02;;;8.38;;
44204;SDS011;30163;42.698;23.344;2023-03-23T15:04:57;15.15;;;8.57;;
44204;SDS011;30163;42.698;23.344;2023-03-23T15:07:26;15.73;;;8.35;;
44204;SDS011;30163;42.698;23.344;2023-03-23T15:09:53;13.32;;;8.38;;
44204;SDS011;30163;42.698;23.344;2023-03-23T15:12:20;22.63;;;7.75;;
44204;SDS011;30163;42.698;23.344;2023-03-23T15:14:48;26.05;;;8.05;;
44204;SDS011;30163;42.698;23.344;2023-03-23T15:17:23;14.60;;;7.88;;
44204;SDS011;30163;42.698;23.344;2023-03-23T15:19:50;16.42;;;8.15;;
44204;SDS011;30163;42.698;23.344;2023-03-23T15:22:23;13.50;;;7.88;;
44204;SDS011;30163;42.698;23.344;2023-03-23T15:25:07;14.73;;;8.00;;
44204;SDS011;30163;42.698;23.344;2023-03-23T15:27:39;14.50;;;8.40;;
44204;SDS011;30163;42.698;23.344;2023-03-23T15:30:14;15.68;;;8.80;;
44204;SDS011;30163;42.698;23.344;2023-03-23T15:33:10;16.98;;;9.18;;
44204;SDS011;30163;42.698;23.344;2023-03-23T15:35:38;15.48;;;8.30;;
44204;SDS011;30163;42.698;23.344;2023-03-23T15:38:12;15.05;;;9.48;;
44204;SDS011;30163;42.698;23.344;2023-03-23T15:40:43;20.90;;;9.30;;
44204;SDS011;30163;42.698;23.344;2023-03-23T15:48:17;13.90;;;8.07;;
44204;SDS011;30163;42.698;23.344;2023-03-23T15:50:43;20.63;;;8.00;;
44204;SDS011;30163;42.698;23.344;2023-03-23T15:53:45;24.63;;;11.35;;
44204;SDS011;30163;42.698;23.344;2023-03-23T15:56:04;15.93;;;8.93;;
44204;SDS011;30163;42.698;23.344;2023-03-23T15:58:31;19.75;;;8.65;;
44204;SDS011;30163;42.698;23.344;2023-03-23T16:00:57;14.98;;;8.63;;
44204;SDS011;30163;42.698;23.344;2023-03-23T16:03:27;17.08;;;8.43;;
44204;SDS011;30163;42.698;23.344;2023-03-23T16:06:14;20.50;;;8.75;;
44204;SDS011;30163;42.698;23.344;2023-03-23T16:08:41;18.85;;;8.45;;
44204;SDS011;30163;42.698;23.344;2023-03-23T16:11:08;13.80;;;8.50;;
44204;SDS011;30163;42.698;23.344;2023-03-23T16:13:35;33.40;;;10.88;;
44204;SDS011;30163;42.698;23.344;2023-03-23T16:16:00;32.67;;;9.82;;
44204;SDS011;30163;42.698;23.344;2023-03-23T16:18:27;15.10;;;8.75;;